createdAt,value
2023-03-15T00:01:34.833Z,1.50
2023-03-15T00:04:01.425Z,2.35
2023-03-15T00:06:27.938Z,1.98
2023-03-15T00:08:54.409Z,1.98
2023-03-15T00:11:20.818Z,1.77
2023-03-15T00:13:47.541Z,2.22
2023-03-15T00:16:17.537Z,2.17
2023-03-15T00:18:47.028Z,1.63
2023-03-15T00:21:14.024Z,2.22
2023-03-15T00:23:40.571Z,2.60
2023-03-15T00:26:07.057Z,2.20
2023-03-15T00:28:33.504Z,2.35
2023-03-15T00:31:26.315Z,2.33
2023-03-15T00:33:55.923Z,2.35
2023-03-15T00:36:23.644Z,2.80
2023-03-15T00:38:52.183Z,2.28
2023-03-15T00:41:20.246Z,3.10
2023-03-15T00:43:47.741Z,3.00
2023-03-15T00:46:16.158Z,2.97
2023-03-15T00:48:42.912Z,2.70
2023-03-15T00:51:11.012Z,2.85
2023-03-15T00:53:39.196Z,3.30
2023-03-15T00:56:15.612Z,2.72
2023-03-15T00:58:42.724Z,2.83
2023-03-15T01:01:15.560Z,2.47
2023-03-15T01:03:42.180Z,3.40
2023-03-15T01:06:14.624Z,3.35
2023-03-15T01:08:41.394Z,3.03
2023-03-15T01:11:13.695Z,3.05
2023-03-15T01:13:40.525Z,3.17
2023-03-15T01:16:08.976Z,3.25
2023-03-15T01:21:07.224Z,2.63
2023-03-15T01:23:33.759Z,2.67
2023-03-15T01:26:01.449Z,2.65
2023-03-15T01:28:28.470Z,2.65
2023-03-15T01:30:55.150Z,2.50
2023-03-15T01:33:21.725Z,2.20
2023-03-15T01:35:48.735Z,3.08
2023-03-15T01:38:15.316Z,2.72
2023-03-15T01:40:46.349Z,2.40
2023-03-15T01:43:18.181Z,2.65
2023-03-15T01:46:02.865Z,2.28
2023-03-15T01:48:44.848Z,2.20
2023-03-15T01:51:21.745Z,1.92
2023-03-15T01:53:57.681Z,2.13
2023-03-15T01:56:24.566Z,2.00
2023-03-15T01:58:53.846Z,2.50
2023-03-15T02:01:21.461Z,2.80
2023-03-15T02:03:53.497Z,1.77
2023-03-15T02:06:21.451Z,2.53
2023-03-15T02:08:54.855Z,2.60
2023-03-15T02:11:24.240Z,2.58
2023-03-15T02:13:52.700Z,2.38
2023-03-15T02:16:20.754Z,2.50
2023-03-15T02:18:47.844Z,2.58
2023-03-15T02:21:38.368Z,2.30
2023-03-15T02:24:22.934Z,2.47
2023-03-15T02:26:54.434Z,2.42
2023-03-15T02:29:24.060Z,2.40
2023-03-15T02:31:51.425Z,3.15
2023-03-15T02:34:18.510Z,2.70
2023-03-15T02:36:45.120Z,3.00
2023-03-15T02:39:17.747Z,2.53
2023-03-15T02:41:48.866Z,2.60
2023-03-15T02:44:21.451Z,2.80
2023-03-15T02:46:51.210Z,2.92
2023-03-15T02:49:21.816Z,2.67
2023-03-15T02:51:48.173Z,3.30
2023-03-15T02:54:14.661Z,3.35
2023-03-15T02:56:41.103Z,2.80
2023-03-15T02:59:07.658Z,3.15
2023-03-15T03:01:37.264Z,3.10
2023-03-15T03:04:04.027Z,3.05
2023-03-15T03:06:30.872Z,3.05
2023-03-15T03:08:57.423Z,3.20
2023-03-15T03:11:23.948Z,3.30
2023-03-15T03:13:51.186Z,3.03
2023-03-15T03:16:17.707Z,3.35
2023-03-15T03:18:44.183Z,3.42
2023-03-15T03:21:10.785Z,3.40
2023-03-15T03:23:37.414Z,3.42
2023-03-15T03:26:04.458Z,3.75
2023-03-15T03:28:32.255Z,3.67
2023-03-15T03:30:59.257Z,3.95
2023-03-15T03:33:25.815Z,3.50
2023-03-15T03:35:53.998Z,3.33
2023-03-15T03:38:20.559Z,3.35
2023-03-15T03:40:47.057Z,3.78
2023-03-15T03:43:13.540Z,3.85
2023-03-15T03:45:39.970Z,3.47
2023-03-15T03:48:06.624Z,3.97
2023-03-15T03:50:33.279Z,4.53
2023-03-15T03:52:59.809Z,3.90
2023-03-15T03:55:26.366Z,3.78
2023-03-15T03:57:55.748Z,4.10
2023-03-15T04:00:22.353Z,3.92
2023-03-15T04:02:49.009Z,3.83
2023-03-15T04:05:15.616Z,3.90
2023-03-15T04:07:42.067Z,4.15
2023-03-15T04:10:14.727Z,4.50
2023-03-15T04:12:44.375Z,3.63
2023-03-15T04:15:12.049Z,4.85
2023-03-15T04:17:39.399Z,4.13
2023-03-15T04:20:08.214Z,4.38
2023-03-15T04:22:34.933Z,4.32
2023-03-15T04:25:01.973Z,4.88
2023-03-15T04:27:29.450Z,5.07
2023-03-15T04:29:56.075Z,4.68
2023-03-15T04:32:23.836Z,5.28
2023-03-15T04:34:55.936Z,5.28
2023-03-15T04:37:22.388Z,5.57
2023-03-15T04:39:48.797Z,5.40
2023-03-15T04:42:15.243Z,4.90
2023-03-15T04:44:41.828Z,5.07
2023-03-15T04:47:08.427Z,5.68
2023-03-15T04:49:34.941Z,6.25
2023-03-15T04:52:01.589Z,5.80
2023-03-15T04:54:28.095Z,5.55
2023-03-15T04:56:54.537Z,6.25
2023-03-15T04:59:21.313Z,5.88
2023-03-15T05:01:48.056Z,5.70
2023-03-15T05:04:14.579Z,5.25
2023-03-15T05:06:41.048Z,5.55
2023-03-15T05:09:07.699Z,6.07
2023-03-15T05:11:34.329Z,5.80
2023-03-15T05:14:00.892Z,5.38
2023-03-15T05:16:27.426Z,5.95
2023-03-15T05:18:54.091Z,6.07
2023-03-15T05:21:20.583Z,5.30
2023-03-15T05:23:47.138Z,5.80
2023-03-15T05:26:14.413Z,5.28
2023-03-15T05:28:40.974Z,5.93
2023-03-15T05:31:07.428Z,6.97
2023-03-15T05:33:33.865Z,5.70
2023-03-15T05:36:00.989Z,6.65
2023-03-15T05:38:27.656Z,6.35
2023-03-15T05:40:54.638Z,5.88
2023-03-15T05:43:22.040Z,6.20
2023-03-15T05:45:48.825Z,6.15
2023-03-15T05:48:16.761Z,5.97
2023-03-15T05:50:43.361Z,5.65
2023-03-15T05:53:10.544Z,5.55
2023-03-15T05:55:37.430Z,6.55
2023-03-15T05:58:04.553Z,6.32
2023-03-15T06:00:31.535Z,6.20
2023-03-15T06:02:58.172Z,6.65
2023-03-15T06:05:24.758Z,6.90
2023-03-15T06:07:51.255Z,6.90
2023-03-15T06:10:17.861Z,6.60
2023-03-15T06:12:44.897Z,6.40
2023-03-15T06:15:11.971Z,6.65
2023-03-15T06:17:38.530Z,6.90
2023-03-15T06:20:05.480Z,6.07
2023-03-15T06:22:31.967Z,7.22
2023-03-15T06:24:58.398Z,6.93
2023-03-15T06:27:24.988Z,7.35
2023-03-15T06:29:51.540Z,7.22
2023-03-15T06:32:17.983Z,6.65
2023-03-15T06:34:44.395Z,7.78
2023-03-15T06:37:16.298Z,7.32
2023-03-15T06:39:46.839Z,7.53
2023-03-15T06:42:13.568Z,7.45
2023-03-15T06:44:41.433Z,7.10
2023-03-15T06:47:08.798Z,7.45
2023-03-15T06:49:35.563Z,7.68
2023-03-15T06:52:02.604Z,7.38
2023-03-15T06:54:29.100Z,7.82
2023-03-15T06:56:55.986Z,7.03
2023-03-15T06:59:22.954Z,7.70
2023-03-15T07:01:49.517Z,6.72
2023-03-15T07:04:16.191Z,6.25
2023-03-15T07:06:42.576Z,6.22
2023-03-15T07:09:09.183Z,5.78
2023-03-15T07:11:35.595Z,7.07
2023-03-15T07:14:02.034Z,6.80
2023-03-15T07:16:28.570Z,7.20
2023-03-15T07:21:27.091Z,6.35
2023-03-15T07:23:54.117Z,6.07
2023-03-15T07:26:20.827Z,6.00
2023-03-15T07:28:47.261Z,6.45
2023-03-15T07:31:14.217Z,6.00
2023-03-15T07:33:40.998Z,5.68
2023-03-15T07:36:08.844Z,6.15
2023-03-15T07:38:35.993Z,5.70
2023-03-15T07:41:06.521Z,5.95
2023-03-15T07:43:33.783Z,6.65
2023-03-15T07:46:01.476Z,5.70
2023-03-15T07:48:29.478Z,5.43
2023-03-15T07:50:56.849Z,6.07
2023-03-15T07:53:23.338Z,5.25
2023-03-15T07:55:50.165Z,5.63
2023-03-15T07:58:19.770Z,5.28
2023-03-15T08:00:46.918Z,5.20
2023-03-15T08:03:13.451Z,4.68
2023-03-15T08:05:40.150Z,4.68
2023-03-15T08:08:07.361Z,5.03
2023-03-15T08:10:33.907Z,4.68
2023-03-15T08:13:00.469Z,5.28
2023-03-15T08:15:27.021Z,5.00
2023-03-15T08:17:53.657Z,4.82
2023-03-15T08:20:20.281Z,4.38
2023-03-15T08:22:51.533Z,4.13
2023-03-15T08:25:21.412Z,4.38
2023-03-15T08:27:48.657Z,4.25
2023-03-15T08:30:16.387Z,4.05
2023-03-15T08:32:45.283Z,3.83
2023-03-15T08:35:15.718Z,4.45
2023-03-15T08:37:46.876Z,3.95
2023-03-15T08:40:19.081Z,4.32
2023-03-15T08:42:45.561Z,4.10
2023-03-15T08:45:12.202Z,3.75
2023-03-15T08:47:38.592Z,3.40
2023-03-15T08:50:08.637Z,3.58
2023-03-15T08:52:35.287Z,3.35
2023-03-15T08:55:01.702Z,3.35
2023-03-15T08:57:29.232Z,3.13
2023-03-15T08:59:56.222Z,2.70
2023-03-15T09:02:23.484Z,2.60
2023-03-15T09:04:51.789Z,3.58
2023-03-15T09:07:19.543Z,3.13
2023-03-15T09:09:48.199Z,3.17
2023-03-15T09:12:16.678Z,2.92
2023-03-15T09:14:44.014Z,2.75
2023-03-15T09:17:10.875Z,2.92
2023-03-15T09:19:37.415Z,3.47
2023-03-15T09:22:16.332Z,3.80
2023-03-15T09:24:51.476Z,2.63
2023-03-15T09:27:18.471Z,2.60
2023-03-15T09:29:44.965Z,2.38
2023-03-15T09:32:11.655Z,2.75
2023-03-15T09:34:41.980Z,2.60
2023-03-15T09:37:09.344Z,2.53
2023-03-15T09:39:35.866Z,2.90
2023-03-15T09:42:06.435Z,2.72
2023-03-15T09:44:43.745Z,2.55
2023-03-15T09:47:31.715Z,2.63
2023-03-15T09:50:14.900Z,2.50
2023-03-15T09:55:28.856Z,1.83
2023-03-15T09:58:02.789Z,2.23
2023-03-15T10:00:45.768Z,2.45
2023-03-15T10:03:26.942Z,2.42
2023-03-15T10:06:01.300Z,2.35
2023-03-15T10:08:27.923Z,2.22
2023-03-15T10:11:08.848Z,2.17
2023-03-15T10:14:06.229Z,2.17
2023-03-15T10:16:46.071Z,1.98
2023-03-15T10:19:38.869Z,2.00
2023-03-15T10:22:14.647Z,1.67
2023-03-15T10:25:08.424Z,2.10
2023-03-15T10:27:41.678Z,1.50
2023-03-15T10:30:21.508Z,1.52
2023-03-15T10:32:55.834Z,1.85
2023-03-15T10:35:22.344Z,1.77
2023-03-15T10:37:49.107Z,1.70
2023-03-15T10:40:36.373Z,1.63
2023-03-15T10:43:18.018Z,1.25
2023-03-15T10:46:07.547Z,1.73
2023-03-15T10:48:39.511Z,1.23
2023-03-15T10:51:27.413Z,1.60
2023-03-15T10:54:01.337Z,1.38
2023-03-15T10:56:31.852Z,1.50
2023-03-15T10:59:12.015Z,1.60
2023-03-15T11:01:39.677Z,1.33
2023-03-15T11:04:23.091Z,1.50
2023-03-15T11:09:23.715Z,1.27
2023-03-15T11:12:01.267Z,1.20
2023-03-15T11:14:59.124Z,1.30
2023-03-15T11:17:32.471Z,1.20
2023-03-15T11:20:18.595Z,1.23
2023-03-15T11:22:45.433Z,1.30
2023-03-15T11:25:17.196Z,1.25
2023-03-15T11:27:46.842Z,1.33
2023-03-15T11:30:16.080Z,1.65
2023-03-15T11:32:44.976Z,0.95
2023-03-15T11:35:15.443Z,1.10
2023-03-15T11:37:50.707Z,1.63
2023-03-15T11:40:29.876Z,1.20
2023-03-15T11:42:56.502Z,1.63
2023-03-15T11:45:33.687Z,1.20
2023-03-15T11:48:09.196Z,1.40
2023-03-15T11:50:35.768Z,1.15
2023-03-15T11:53:06.918Z,1.20
2023-03-15T11:55:33.905Z,1.38
2023-03-15T11:58:34.312Z,1.35
2023-03-15T12:01:03.662Z,1.45
2023-03-15T12:03:36.146Z,1.25
2023-03-15T12:06:05.686Z,1.42
2023-03-15T12:08:43.388Z,1.40
2023-03-15T12:11:34.087Z,1.23
2023-03-15T12:14:00.669Z,1.30
2023-03-15T12:16:47.759Z,1.92
2023-03-15T12:19:18.229Z,1.35
2023-03-15T12:21:50.573Z,1.17
2023-03-15T12:24:22.846Z,1.70
2023-03-15T12:27:17.071Z,1.40
2023-03-15T12:29:48.377Z,1.20
2023-03-15T12:32:17.665Z,1.02
2023-03-15T12:34:46.952Z,1.00
2023-03-15T12:37:17.273Z,1.15
2023-03-15T12:39:59.310Z,1.38
2023-03-15T12:42:31.881Z,1.10
2023-03-15T12:45:19.295Z,1.40
2023-03-15T12:47:51.880Z,1.35
2023-03-15T12:50:47.105Z,1.40
2023-03-15T12:53:23.218Z,1.38
2023-03-15T12:55:54.161Z,1.13
2023-03-15T12:58:32.133Z,1.05
2023-03-15T13:01:05.382Z,1.10
2023-03-15T13:03:35.420Z,1.20
2023-03-15T13:06:24.572Z,1.58
2023-03-15T13:09:11.779Z,0.98
2023-03-15T13:11:53.845Z,1.08
2023-03-15T13:14:47.991Z,1.13
2023-03-15T13:17:23.709Z,1.17
2023-03-15T13:23:22.818Z,1.25
2023-03-15T13:26:06.429Z,1.42
2023-03-15T13:28:38.117Z,1.10
2023-03-15T13:31:19.773Z,1.35
2023-03-15T13:33:57.231Z,1.08
2023-03-15T13:36:46.479Z,1.30
2023-03-15T13:39:24.699Z,1.08
2023-03-15T13:42:03.562Z,1.20
2023-03-15T13:44:31.899Z,1.05
2023-03-15T13:46:59.609Z,0.80
2023-03-15T13:49:31.822Z,1.20
2023-03-15T13:51:58.845Z,1.05
2023-03-15T13:54:27.633Z,1.05
2023-03-15T13:57:06.369Z,0.95
2023-03-15T13:59:40.480Z,0.93
2023-03-15T14:02:07.707Z,1.05
2023-03-15T14:04:38.214Z,1.02
2023-03-15T14:07:34.049Z,1.13
2023-03-15T14:10:08.735Z,1.15
2023-03-15T14:12:35.219Z,1.05
2023-03-15T14:15:01.810Z,1.10
2023-03-15T14:17:30.974Z,0.90
2023-03-15T14:20:08.950Z,0.90
2023-03-15T14:22:36.422Z,0.77
2023-03-15T14:25:04.250Z,1.00
2023-03-15T14:27:33.290Z,1.00
2023-03-15T14:30:02.379Z,0.70
2023-03-15T14:32:32.732Z,0.93
2023-03-15T14:35:21.625Z,0.70
2023-03-15T14:37:48.422Z,0.90
2023-03-15T14:40:22.908Z,0.80
2023-03-15T14:42:50.525Z,0.90
2023-03-15T14:45:18.485Z,0.98
2023-03-15T14:47:56.693Z,0.70
2023-03-15T14:50:26.602Z,0.90
2023-03-15T14:52:54.090Z,1.17
2023-03-15T14:55:23.845Z,0.77
2023-03-15T14:57:51.331Z,0.90
2023-03-15T15:00:20.534Z,1.00
2023-03-15T15:02:53.427Z,1.15
2023-03-15T15:05:24.827Z,0.95
2023-03-15T15:07:55.177Z,0.80
2023-03-15T15:10:31.735Z,1.00
2023-03-15T15:13:05.859Z,0.90
2023-03-15T15:15:43.807Z,0.90
2023-03-15T15:18:17.882Z,1.13
2023-03-15T15:20:45.138Z,0.90
2023-03-15T15:23:17.666Z,0.93
2023-03-15T15:25:46.537Z,1.23
2023-03-15T15:28:15.827Z,0.90
2023-03-15T15:30:47.924Z,0.80
2023-03-15T15:33:15.122Z,1.15
2023-03-15T15:35:41.629Z,1.20
2023-03-15T15:38:12.174Z,0.57
2023-03-15T15:40:39.806Z,0.77
2023-03-15T15:43:06.537Z,0.90
2023-03-15T15:45:35.713Z,0.85
2023-03-15T15:48:06.181Z,0.70
2023-03-15T15:50:34.755Z,0.80
2023-03-15T15:53:07.615Z,0.70
2023-03-15T15:55:36.085Z,1.00
2023-03-15T15:58:04.368Z,1.10
2023-03-15T16:00:31.629Z,0.93
2023-03-15T16:02:58.624Z,1.08
2023-03-15T16:05:27.427Z,1.30
2023-03-15T16:07:56.453Z,0.80
2023-03-15T16:10:26.196Z,1.00
2023-03-15T16:12:54.924Z,1.00
2023-03-15T16:15:21.582Z,0.77
2023-03-15T16:17:48.188Z,0.80
2023-03-15T16:20:16.570Z,0.80
2023-03-15T16:22:50.377Z,0.95
2023-03-15T16:25:25.325Z,0.65
2023-03-15T16:27:53.298Z,0.90
2023-03-15T16:30:28.398Z,0.98
2023-03-15T16:32:57.575Z,0.80
2023-03-15T16:35:33.818Z,0.90
2023-03-15T16:38:01.739Z,0.80
2023-03-15T16:40:30.806Z,0.77
2023-03-15T16:42:57.384Z,0.80
2023-03-15T16:45:24.826Z,0.90
2023-03-15T16:47:51.410Z,0.90
2023-03-15T16:50:18.323Z,0.80
2023-03-15T16:52:47.535Z,1.35
2023-03-15T16:55:15.837Z,1.20
2023-03-15T16:57:42.864Z,0.95
2023-03-15T17:00:16.927Z,0.80
2023-03-15T17:02:46.678Z,0.80
2023-03-15T17:05:18.861Z,0.80
2023-03-15T17:07:47.309Z,0.90
2023-03-15T17:10:25.506Z,0.52
2023-03-15T17:12:53.348Z,1.10
2023-03-15T17:15:24.008Z,0.93
2023-03-15T17:17:51.945Z,0.88
2023-03-15T17:20:21.490Z,1.23
2023-03-15T17:22:52.810Z,0.82
2023-03-15T17:25:19.420Z,0.85
2023-03-15T17:27:47.860Z,0.63
2023-03-15T17:30:51.582Z,0.90
2023-03-15T17:33:25.815Z,0.82
2023-03-15T17:35:57.908Z,1.02
2023-03-15T17:38:32.151Z,0.80
2023-03-15T17:40:59.000Z,0.90
2023-03-15T17:43:26.604Z,0.80
2023-03-15T17:45:52.925Z,1.38
2023-03-15T17:48:19.379Z,0.80
2023-03-15T17:50:45.802Z,0.70
2023-03-15T17:53:17.817Z,1.27
2023-03-15T17:55:46.202Z,1.90
2023-03-15T17:58:19.054Z,2.13
2023-03-15T18:00:46.511Z,2.17
2023-03-15T18:03:13.951Z,2.58
2023-03-15T18:05:40.775Z,1.90
2023-03-15T18:08:11.209Z,2.00
2023-03-15T18:10:41.442Z,2.03
2023-03-15T18:13:11.992Z,1.50
2023-03-15T18:15:38.402Z,1.50
2023-03-15T18:18:06.505Z,1.55
2023-03-15T18:20:33.171Z,2.17
2023-03-15T18:22:59.488Z,1.38
2023-03-15T18:25:28.252Z,1.60
2023-03-15T18:27:55.055Z,2.03
2023-03-15T18:30:24.317Z,1.40
2023-03-15T18:32:52.427Z,1.80
2023-03-15T18:35:31.379Z,1.40
2023-03-15T18:37:58.381Z,0.93
2023-03-15T18:40:29.205Z,1.30
2023-03-15T18:42:57.093Z,1.38
2023-03-15T18:45:29.634Z,1.50
2023-03-15T18:47:56.732Z,1.50
2023-03-15T18:50:23.142Z,1.30
2023-03-15T18:52:49.498Z,1.30
2023-03-15T18:55:18.342Z,1.60
2023-03-15T18:57:46.020Z,1.00
2023-03-15T19:00:15.944Z,1.02
2023-03-15T19:02:44.775Z,1.17
2023-03-15T19:05:13.651Z,1.10
2023-03-15T19:07:40.453Z,1.30
2023-03-15T19:10:09.824Z,1.27
2023-03-15T19:12:36.744Z,0.90
2023-03-15T19:15:04.421Z,1.05
2023-03-15T19:17:30.864Z,0.88
2023-03-15T19:19:57.261Z,1.00
2023-03-15T19:22:23.968Z,1.25
2023-03-15T19:24:50.489Z,1.80
2023-03-15T19:27:17.861Z,1.23
2023-03-15T19:29:44.397Z,1.48
2023-03-15T19:32:10.976Z,1.65
2023-03-15T19:34:37.551Z,1.50
2023-03-15T19:37:04.394Z,1.70
2023-03-15T19:39:30.866Z,1.33
2023-03-15T19:41:57.415Z,1.70
2023-03-15T19:44:23.932Z,2.10
2023-03-15T19:46:50.990Z,2.13
2023-03-15T19:49:17.457Z,1.77
2023-03-15T19:51:43.975Z,1.75
2023-03-15T19:54:10.616Z,2.20
2023-03-15T19:56:37.141Z,2.45
2023-03-15T19:59:04.453Z,2.08
2023-03-15T20:01:32.378Z,1.60
2023-03-15T20:03:59.498Z,1.77
2023-03-15T20:06:26.273Z,1.40
2023-03-15T20:08:52.895Z,1.73
2023-03-15T20:11:25.157Z,1.50
2023-03-15T20:13:54.758Z,1.40
2023-03-15T20:16:22.131Z,1.75
2023-03-15T20:18:51.286Z,1.60
2023-03-15T20:21:18.656Z,1.80
2023-03-15T20:23:45.508Z,1.48
2023-03-15T20:26:16.764Z,1.50
2023-03-15T20:28:44.318Z,1.35
2023-03-15T20:31:13.155Z,1.40
2023-03-15T20:33:40.127Z,1.30
2023-03-15T20:36:07.183Z,1.55
2023-03-15T20:38:34.612Z,1.58
2023-03-15T20:41:01.233Z,1.50
2023-03-15T20:43:27.695Z,2.05
2023-03-15T20:45:55.981Z,1.92
2023-03-15T20:48:24.697Z,1.80
2023-03-15T20:50:52.312Z,1.88
2023-03-15T20:53:19.510Z,1.48
2023-03-15T20:55:46.195Z,2.40
2023-03-15T20:58:12.872Z,1.33
2023-03-15T21:00:44.384Z,1.80
2023-03-15T21:03:13.109Z,2.38
2023-03-15T21:05:44.664Z,1.85
2023-03-15T21:08:12.195Z,1.88
2023-03-15T21:10:38.923Z,1.83
2023-03-15T21:13:11.036Z,1.75
2023-03-15T21:15:46.593Z,1.90
2023-03-15T21:18:17.943Z,1.63
2023-03-15T21:20:44.576Z,1.42
2023-03-15T21:23:11.555Z,1.58
2023-03-15T21:25:38.442Z,2.00
2023-03-15T21:28:05.026Z,1.77
2023-03-15T21:30:33.097Z,2.30
2023-03-15T21:33:00.062Z,2.17
2023-03-15T21:35:26.699Z,2.13
2023-03-15T21:37:53.358Z,2.67
2023-03-15T21:40:19.927Z,2.20
2023-03-15T21:42:47.869Z,2.60
2023-03-15T21:45:14.661Z,2.28
2023-03-15T21:47:41.524Z,2.40
2023-03-15T21:50:11.136Z,2.65
2023-03-15T21:52:37.626Z,2.78
2023-03-15T21:55:04.896Z,2.35
2023-03-15T21:57:33.841Z,1.92
2023-03-15T22:00:01.202Z,1.80
2023-03-15T22:02:27.758Z,1.67
2023-03-15T22:04:54.286Z,1.95
2023-03-15T22:07:20.835Z,1.67
2023-03-15T22:09:47.354Z,2.10
2023-03-15T22:12:15.482Z,1.92
2023-03-15T22:14:42.206Z,2.17
2023-03-15T22:17:08.930Z,1.90
2023-03-15T22:19:35.611Z,2.03
2023-03-15T22:22:02.190Z,1.73
2023-03-15T22:24:28.947Z,2.05
2023-03-15T22:26:56.170Z,1.60
2023-03-15T22:29:22.845Z,1.70
2023-03-15T22:31:49.342Z,1.90
2023-03-15T22:34:15.943Z,1.60
2023-03-15T22:36:42.701Z,1.60
2023-03-15T22:39:10.098Z,2.10
2023-03-15T22:41:36.934Z,2.22
2023-03-15T22:44:03.722Z,1.58
2023-03-15T22:46:34.886Z,1.90
2023-03-15T22:49:02.294Z,2.00
2023-03-15T22:51:28.958Z,1.95
2023-03-15T22:53:55.473Z,2.83
2023-03-15T22:56:22.054Z,2.25
2023-03-15T22:58:48.785Z,1.70
2023-03-15T23:01:15.377Z,2.35
2023-03-15T23:03:41.946Z,2.33
2023-03-15T23:06:08.420Z,2.33
2023-03-15T23:08:34.979Z,2.47
2023-03-15T23:11:01.503Z,3.08
2023-03-15T23:13:27.969Z,2.70
2023-03-15T23:15:54.581Z,2.58
2023-03-15T23:18:22.068Z,2.40
2023-03-15T23:20:48.592Z,2.08
2023-03-15T23:23:15.414Z,2.60
2023-03-15T23:25:43.074Z,2.55
2023-03-15T23:28:09.725Z,2.40
2023-03-15T23:30:36.532Z,2.55
2023-03-15T23:33:03.841Z,2.40
2023-03-15T23:35:31.779Z,2.50
2023-03-15T23:37:58.563Z,2.33
2023-03-15T23:40:26.161Z,2.28
2023-03-15T23:42:58.877Z,2.15
2023-03-15T23:45:27.771Z,2.58
2023-03-15T23:47:54.396Z,2.63
2023-03-15T23:50:25.802Z,2.55
2023-03-15T23:52:54.684Z,3.00
2023-03-15T23:55:22.262Z,2.40
2023-03-15T23:57:49.335Z,2.33
